Time;durP1;ratioP1;P1;durP2;ratioP2;P2;SDS_P1;SDS_P2;PMS_P1;PMS_P2;Temp;Humidity;BMP_temperature;BMP_pressure;BME280_temperature;BME280_humidity;BME280_pressure;Samples;Min_cycle;Max_cycle;Signal;HPM_P1;HPM_P2
2022/07/28 00:02:08;;;;;;;1.15;0.60;;;;;;;;;;4928247;29;20036;-78
2022/07/28 00:04:34;;;;;;;4.68;0.63;;;;;;;;;;4926347;28;20042;-75
2022/07/28 00:07:00;;;;;;;3.17;0.80;;;;;;;;;;4941129;28;20118;-78
2022/07/28 00:09:26;;;;;;;3.42;0.90;;;;;;;;;;4931033;28;20179;-78
2022/07/28 00:11:51;;;;;;;4.80;0.90;;;;;;;;;;4927924;29;20509;-79
2022/07/28 00:14:17;;;;;;;2.45;0.70;;;;;;;;;;4924079;29;20039;-78
2022/07/28 00:16:42;;;;;;;1.13;0.52;;;;;;;;;;4946098;28;20039;-77
2022/07/28 00:19:08;;;;;;;2.05;0.70;;;;;;;;;;4946493;28;20040;-76
2022/07/28 00:21:33;;;;;;;1.45;0.50;;;;;;;;;;4930202;28;20043;-76
2022/07/28 00:23:59;;;;;;;5.22;0.68;;;;;;;;;;4928136;28;20028;-77
2022/07/28 00:26:24;;;;;;;3.58;0.98;;;;;;;;;;4930135;29;20027;-78
2022/07/28 00:28:49;;;;;;;0.75;0.43;;;;;;;;;;4962234;28;20070;-77
2022/07/28 00:31:15;;;;;;;1.42;0.63;;;;;;;;;;4950484;28;20042;-76
2022/07/28 00:33:41;;;;;;;2.72;0.98;;;;;;;;;;4950096;28;20043;-75
2022/07/28 00:36:09;;;;;;;3.13;0.80;;;;;;;;;;4949909;28;20065;-77
2022/07/28 00:38:36;;;;;;;2.90;0.95;;;;;;;;;;4952023;28;20387;-78
2022/07/28 00:41:10;;;;;;;2.83;0.75;;;;;;;;;;4949391;28;20043;-77
2022/07/28 00:43:43;;;;;;;3.13;1.10;;;;;;;;;;4947685;28;20049;-78
2022/07/28 00:46:09;;;;;;;1.85;0.60;;;;;;;;;;4949421;28;20062;-78
2022/07/28 00:48:47;;;;;;;1.92;0.80;;;;;;;;;;4950035;28;20043;-78
2022/07/28 00:51:15;;;;;;;2.83;0.60;;;;;;;;;;4944628;28;20047;-78
2022/07/28 00:53:40;;;;;;;1.63;0.70;;;;;;;;;;4930345;28;20420;-78
2022/07/28 00:56:06;;;;;;;4.45;0.80;;;;;;;;;;4928887;29;20191;-78
2022/07/28 00:58:32;;;;;;;5.47;0.65;;;;;;;;;;4963861;28;20487;-79
2022/07/28 01:00:58;;;;;;;2.60;0.70;;;;;;;;;;4949768;28;20039;-76
2022/07/28 01:03:24;;;;;;;2.15;0.77;;;;;;;;;;4949204;28;20031;-76
2022/07/28 01:06:27;;;;;;;2.60;0.75;;;;;;;;;;4950519;28;20028;-76
2022/07/28 01:09:09;;;;;;;1.17;0.70;;;;;;;;;;4948550;28;20436;-77
2022/07/28 01:11:57;;;;;;;5.47;1.10;;;;;;;;;;4965074;28;20126;-77
2022/07/28 01:14:33;;;;;;;5.15;0.60;;;;;;;;;;4951289;28;20513;-77
2022/07/28 01:17:05;;;;;;;2.53;0.70;;;;;;;;;;4947007;28;20035;-76
2022/07/28 01:20:04;;;;;;;1.30;0.70;;;;;;;;;;4949858;28;20402;-77
2022/07/28 01:22:36;;;;;;;4.05;0.63;;;;;;;;;;4945132;28;20487;-77
2022/07/28 01:25:30;;;;;;;1.58;0.73;;;;;;;;;;4951802;28;20048;-77
2022/07/28 01:28:49;;;;;;;3.05;0.70;;;;;;;;;;4947367;28;20047;-77
2022/07/28 01:31:20;;;;;;;1.27;0.60;;;;;;;;;;4916778;29;20041;-78
2022/07/28 01:33:49;;;;;;;1.60;0.60;;;;;;;;;;4948108;28;20471;-75
2022/07/28 01:36:20;;;;;;;1.20;0.60;;;;;;;;;;4951975;28;20058;-78
2022/07/28 01:38:47;;;;;;;1.75;0.50;;;;;;;;;;4965835;28;20474;-77
2022/07/28 01:41:18;;;;;;;1.73;0.60;;;;;;;;;;4957835;28;20094;-76
2022/07/28 01:43:46;;;;;;;3.55;0.60;;;;;;;;;;4968455;28;20050;-75
2022/07/28 01:46:13;;;;;;;4.97;0.80;;;;;;;;;;4949828;28;20054;-77
2022/07/28 01:48:42;;;;;;;1.80;0.70;;;;;;;;;;4951687;28;20162;-77
2022/07/28 01:51:08;;;;;;;2.25;0.60;;;;;;;;;;4947350;28;20451;-76
2022/07/28 01:53:36;;;;;;;1.88;0.75;;;;;;;;;;4933783;29;20023;-76
2022/07/28 01:56:02;;;;;;;2.30;0.47;;;;;;;;;;4947590;28;20050;-76
2022/07/28 01:58:30;;;;;;;1.92;0.60;;;;;;;;;;4937737;28;20091;-76
2022/07/28 02:00:57;;;;;;;2.95;0.70;;;;;;;;;;4933227;28;20050;-78
2022/07/28 02:03:26;;;;;;;2.25;0.73;;;;;;;;;;4932500;28;20039;-76
2022/07/28 02:05:53;;;;;;;2.25;0.80;;;;;;;;;;4932827;28;20380;-76
2022/07/28 02:08:21;;;;;;;2.88;0.70;;;;;;;;;;4930755;29;20037;-76
2022/07/28 02:11:38;;;;;;;2.63;0.77;;;;;;;;;;4950806;28;20459;-77
2022/07/28 02:13:35;;;;;;;2.65;0.60;;;;;;;;;;4949272;28;20388;-77
2022/07/28 02:16:04;;;;;;;2.13;0.70;;;;;;;;;;4941595;28;20047;-75
2022/07/28 02:18:32;;;;;;;3.67;0.60;;;;;;;;;;4940800;28;20039;-77
2022/07/28 02:20:59;;;;;;;3.00;0.65;;;;;;;;;;4948789;28;20504;-77
2022/07/28 02:23:25;;;;;;;2.50;0.90;;;;;;;;;;4951694;28;20074;-77
2022/07/28 02:25:52;;;;;;;1.20;0.82;;;;;;;;;;4951026;28;20115;-77
2022/07/28 02:28:20;;;;;;;1.45;0.60;;;;;;;;;;4949942;28;20048;-76
2022/07/28 02:31:05;;;;;;;4.78;0.77;;;;;;;;;;4959775;28;20054;-76
2022/07/28 02:33:32;;;;;;;2.85;0.70;;;;;;;;;;4951684;28;20503;-77
2022/07/28 02:36:06;;;;;;;1.80;0.70;;;;;;;;;;4948607;28;20519;-76
2022/07/28 02:38:38;;;;;;;0.68;0.50;;;;;;;;;;4948673;28;20023;-77
2022/07/28 02:41:12;;;;;;;0.88;0.57;;;;;;;;;;4950160;28;20102;-76
2022/07/28 02:43:38;;;;;;;2.00;0.30;;;;;;;;;;4950078;28;20240;-77
2022/07/28 02:46:10;;;;;;;2.70;0.75;;;;;;;;;;4964408;28;20054;-74
2022/07/28 02:48:37;;;;;;;2.35;0.50;;;;;;;;;;4963079;28;20396;-77
2022/07/28 02:51:05;;;;;;;1.38;0.60;;;;;;;;;;4945856;28;20526;-76
2022/07/28 02:53:32;;;;;;;1.42;0.63;;;;;;;;;;4950663;28;21223;-76
2022/07/28 02:55:59;;;;;;;3.92;0.80;;;;;;;;;;4949369;28;20391;-76
2022/07/28 02:58:26;;;;;;;1.17;0.60;;;;;;;;;;4937739;28;20053;-76
2022/07/28 03:00:53;;;;;;;2.35;0.88;;;;;;;;;;4930969;28;20492;-76
2022/07/28 03:03:20;;;;;;;2.65;0.75;;;;;;;;;;4938916;28;20058;-76
2022/07/28 03:05:47;;;;;;;0.93;0.50;;;;;;;;;;4949816;28;20035;-76
2022/07/28 03:08:14;;;;;;;1.45;0.57;;;;;;;;;;4930671;29;20424;-77
2022/07/28 03:10:40;;;;;;;2.08;0.65;;;;;;;;;;4933646;28;20042;-77
2022/07/28 03:13:06;;;;;;;5.38;1.02;;;;;;;;;;4928701;28;20056;-76
2022/07/28 03:15:33;;;;;;;1.73;0.60;;;;;;;;;;4929884;28;20127;-76
2022/07/28 03:17:59;;;;;;;0.85;0.40;;;;;;;;;;4937795;28;20024;-76
2022/07/28 03:20:25;;;;;;;5.63;1.38;;;;;;;;;;4949893;28;20042;-76
2022/07/28 03:22:50;;;;;;;3.58;0.70;;;;;;;;;;4950251;28;20812;-76
2022/07/28 03:25:23;;;;;;;3.45;0.77;;;;;;;;;;4948841;28;20039;-77
2022/07/28 03:27:50;;;;;;;0.80;0.57;;;;;;;;;;4963747;28;20050;-77
2022/07/28 03:30:19;;;;;;;5.65;0.88;;;;;;;;;;4949301;28;20042;-77
2022/07/28 03:32:50;;;;;;;2.35;0.80;;;;;;;;;;4950029;28;20038;-76
2022/07/28 03:35:16;;;;;;;2.80;0.60;;;;;;;;;;4927411;28;20051;-77
2022/07/28 03:37:54;;;;;;;1.92;0.63;;;;;;;;;;4948540;28;20041;-77
2022/07/28 03:40:25;;;;;;;3.13;0.90;;;;;;;;;;4935886;28;20341;-76
2022/07/28 03:42:52;;;;;;;6.57;1.00;;;;;;;;;;4935603;28;20035;-77
2022/07/28 03:45:18;;;;;;;5.90;0.80;;;;;;;;;;4942280;28;20159;-77
2022/07/28 03:47:56;;;;;;;1.42;0.63;;;;;;;;;;4929000;28;20035;-76
2022/07/28 03:50:27;;;;;;;4.18;0.90;;;;;;;;;;4949317;28;20368;-76
2022/07/28 03:52:54;;;;;;;3.08;0.77;;;;;;;;;;4949730;28;20517;-76
2022/07/28 03:55:20;;;;;;;3.22;0.80;;;;;;;;;;4944962;28;20502;-78
2022/07/28 03:57:45;;;;;;;5.57;0.77;;;;;;;;;;4927958;28;20067;-76
2022/07/28 04:00:12;;;;;;;3.45;0.80;;;;;;;;;;4933835;28;20059;-77
2022/07/28 04:02:42;;;;;;;2.30;0.98;;;;;;;;;;4953955;28;20398;-77
2022/07/28 04:05:10;;;;;;;1.63;0.70;;;;;;;;;;4929607;28;21778;-76
2022/07/28 04:07:35;;;;;;;3.90;1.45;;;;;;;;;;4932644;28;20549;-76
2022/07/28 04:10:00;;;;;;;3.88;0.80;;;;;;;;;;4925670;29;20036;-76
2022/07/28 04:12:26;;;;;;;7.57;0.90;;;;;;;;;;4932097;28;20051;-76
2022/07/28 04:14:51;;;;;;;3.03;0.70;;;;;;;;;;4927590;28;20123;-76
2022/07/28 04:17:17;;;;;;;4.55;1.25;;;;;;;;;;4949150;28;20031;-77
2022/07/28 04:19:42;;;;;;;3.83;1.00;;;;;;;;;;4947827;28;20150;-76
2022/07/28 04:22:07;;;;;;;1.85;0.73;;;;;;;;;;4947920;28;20074;-77
2022/07/28 04:24:33;;;;;;;2.80;0.93;;;;;;;;;;4942894;28;20067;-77
2022/07/28 04:26:58;;;;;;;2.45;1.02;;;;;;;;;;4930022;28;20038;-77
2022/07/28 04:29:24;;;;;;;6.07;1.10;;;;;;;;;;4941151;28;20114;-77
2022/07/28 04:31:49;;;;;;;3.33;1.23;;;;;;;;;;4923612;29;20035;-77
2022/07/28 04:34:14;;;;;;;4.95;1.30;;;;;;;;;;4930948;28;20514;-76
2022/07/28 04:36:42;;;;;;;2.47;0.90;;;;;;;;;;4936337;28;20116;-78
2022/07/28 04:39:10;;;;;;;4.95;1.20;;;;;;;;;;4945940;28;20051;-76
2022/07/28 04:41:35;;;;;;;5.47;1.10;;;;;;;;;;4947515;28;20031;-76
2022/07/28 04:44:01;;;;;;;2.05;1.10;;;;;;;;;;4930866;28;20031;-77
2022/07/28 04:46:26;;;;;;;2.33;0.93;;;;;;;;;;4939150;28;20073;-78
2022/07/28 04:48:52;;;;;;;2.17;1.08;;;;;;;;;;4949434;28;20196;-76
2022/07/28 04:51:17;;;;;;;4.97;1.50;;;;;;;;;;4946479;28;20105;-77
2022/07/28 04:53:42;;;;;;;3.13;1.08;;;;;;;;;;4948202;28;20050;-77
2022/07/28 04:56:08;;;;;;;4.55;1.48;;;;;;;;;;4929152;29;20164;-76
2022/07/28 04:58:33;;;;;;;3.20;1.08;;;;;;;;;;4944992;28;20832;-76
2022/07/28 05:00:59;;;;;;;4.03;1.00;;;;;;;;;;4974739;28;20043;-77
2022/07/28 05:03:24;;;;;;;5.57;1.10;;;;;;;;;;4941798;28;20075;-77
2022/07/28 05:05:50;;;;;;;4.75;0.90;;;;;;;;;;4928924;28;20031;-77
2022/07/28 05:08:15;;;;;;;2.58;1.13;;;;;;;;;;4975351;28;20055;-76
2022/07/28 05:10:40;;;;;;;2.47;0.80;;;;;;;;;;4959752;28;20035;-76
2022/07/28 05:13:06;;;;;;;1.55;0.80;;;;;;;;;;4951849;28;20050;-76
2022/07/28 05:15:33;;;;;;;3.17;0.88;;;;;;;;;;4950760;28;20031;-76
2022/07/28 05:17:58;;;;;;;5.43;1.10;;;;;;;;;;4949456;28;20027;-78
2022/07/28 05:20:23;;;;;;;2.60;1.13;;;;;;;;;;4953024;28;20041;-77
2022/07/28 05:22:49;;;;;;;4.47;1.17;;;;;;;;;;4947882;28;20047;-76
2022/07/28 05:25:17;;;;;;;7.18;1.30;;;;;;;;;;4953409;28;20063;-78
2022/07/28 05:27:46;;;;;;;4.05;0.90;;;;;;;;;;4951869;28;20050;-77
2022/07/28 05:30:13;;;;;;;8.18;1.30;;;;;;;;;;4961625;28;20043;-78
2022/07/28 05:32:38;;;;;;;3.90;1.00;;;;;;;;;;4930638;29;20044;-77
2022/07/28 05:35:04;;;;;;;2.92;0.93;;;;;;;;;;4952501;28;20101;-75
2022/07/28 05:37:34;;;;;;;4.68;1.10;;;;;;;;;;4954956;28;20042;-77
2022/07/28 05:40:00;;;;;;;3.03;0.88;;;;;;;;;;4954127;28;20567;-76
2022/07/28 05:42:27;;;;;;;1.50;0.85;;;;;;;;;;4956407;28;20043;-76
2022/07/28 05:44:52;;;;;;;2.28;0.73;;;;;;;;;;4980760;28;20090;-77
2022/07/28 05:47:18;;;;;;;4.38;1.00;;;;;;;;;;4957726;28;20624;-76
2022/07/28 05:49:43;;;;;;;1.85;0.63;;;;;;;;;;4957449;28;20046;-76
2022/07/28 05:52:09;;;;;;;3.25;1.00;;;;;;;;;;4956072;28;20058;-76
2022/07/28 05:54:34;;;;;;;2.30;0.60;;;;;;;;;;4951823;28;20125;-78
2022/07/28 05:56:59;;;;;;;3.45;0.85;;;;;;;;;;4957157;28;20047;-77
2022/07/28 05:59:25;;;;;;;3.72;0.80;;;;;;;;;;4956041;28;20027;-76
2022/07/28 06:01:50;;;;;;;1.83;0.70;;;;;;;;;;4951509;28;20050;-75
2022/07/28 06:04:15;;;;;;;1.67;0.80;;;;;;;;;;4955336;28;20680;-77
2022/07/28 06:06:41;;;;;;;3.63;0.77;;;;;;;;;;4967085;28;20088;-75
2022/07/28 06:09:06;;;;;;;1.40;0.80;;;;;;;;;;4948493;28;20186;-77
2022/07/28 06:11:32;;;;;;;3.75;0.82;;;;;;;;;;4951183;28;20407;-77
2022/07/28 06:13:57;;;;;;;1.70;0.60;;;;;;;;;;4931578;28;20613;-78
2022/07/28 06:16:23;;;;;;;5.50;0.90;;;;;;;;;;4945704;28;20039;-77
2022/07/28 06:18:49;;;;;;;2.28;0.80;;;;;;;;;;4941083;28;20039;-77
2022/07/28 06:21:15;;;;;;;4.63;0.90;;;;;;;;;;4935474;28;20451;-77
2022/07/28 06:23:40;;;;;;;4.00;0.60;;;;;;;;;;4952890;28;20023;-76
2022/07/28 06:26:06;;;;;;;5.00;0.93;;;;;;;;;;4952384;28;20462;-76
2022/07/28 06:28:31;;;;;;;4.53;0.98;;;;;;;;;;4951314;28;20044;-76
2022/07/28 06:30:57;;;;;;;2.22;0.90;;;;;;;;;;4948291;28;20419;-78
2022/07/28 06:33:22;;;;;;;3.00;0.82;;;;;;;;;;4946895;28;20407;-77
2022/07/28 06:35:48;;;;;;;3.88;0.80;;;;;;;;;;4934360;28;20023;-76
2022/07/28 06:38:13;;;;;;;3.47;0.80;;;;;;;;;;4957320;28;20136;-78
2022/07/28 06:40:38;;;;;;;2.30;0.73;;;;;;;;;;4937634;28;20044;-76
2022/07/28 06:43:04;;;;;;;3.65;1.10;;;;;;;;;;4947851;28;20048;-76
2022/07/28 06:45:29;;;;;;;3.97;1.08;;;;;;;;;;4948296;28;20724;-78
2022/07/28 06:47:55;;;;;;;4.80;1.13;;;;;;;;;;4934602;29;20032;-77
2022/07/28 06:50:21;;;;;;;7.80;1.08;;;;;;;;;;4953218;28;20030;-77
2022/07/28 06:52:46;;;;;;;5.15;0.98;;;;;;;;;;4935136;28;20036;-77
2022/07/28 06:55:14;;;;;;;2.33;0.90;;;;;;;;;;4935673;28;20043;-78
2022/07/28 06:57:42;;;;;;;8.27;1.05;;;;;;;;;;4944067;28;20106;-76
2022/07/28 07:00:10;;;;;;;5.70;1.00;;;;;;;;;;4947497;28;20044;-76
2022/07/28 07:02:40;;;;;;;8.18;1.17;;;;;;;;;;4932762;29;20031;-77
2022/07/28 07:05:06;;;;;;;8.10;1.35;;;;;;;;;;4951597;28;20102;-78
2022/07/28 07:07:32;;;;;;;4.70;1.00;;;;;;;;;;4953089;28;20047;-78
2022/07/28 07:09:57;;;;;;;6.75;1.25;;;;;;;;;;4948992;28;20149;-78
2022/07/28 07:12:23;;;;;;;3.30;1.00;;;;;;;;;;4949515;28;20031;-77
2022/07/28 07:14:48;;;;;;;6.50;0.93;;;;;;;;;;4951099;28;20026;-76
2022/07/28 07:17:13;;;;;;;6.20;0.90;;;;;;;;;;4953765;28;20023;-76
2022/07/28 07:19:39;;;;;;;4.55;1.13;;;;;;;;;;4951005;28;20172;-77
2022/07/28 07:22:04;;;;;;;3.47;1.02;;;;;;;;;;4964766;28;20043;-77
2022/07/28 07:24:30;;;;;;;5.82;1.35;;;;;;;;;;4949372;28;20035;-77
2022/07/28 07:26:55;;;;;;;3.97;1.10;;;;;;;;;;4948114;28;20051;-78
2022/07/28 07:29:21;;;;;;;2.85;0.80;;;;;;;;;;4953207;28;20039;-77
2022/07/28 07:31:47;;;;;;;4.43;0.88;;;;;;;;;;4951283;28;20142;-77
2022/07/28 07:34:12;;;;;;;5.25;1.05;;;;;;;;;;4950281;28;20567;-77
2022/07/28 07:36:38;;;;;;;4.47;1.00;;;;;;;;;;4951923;28;20081;-79
2022/07/28 07:39:03;;;;;;;4.10;1.00;;;;;;;;;;4952168;28;20051;-78
2022/07/28 07:41:29;;;;;;;5.72;1.00;;;;;;;;;;4951331;28;20109;-77
2022/07/28 07:43:54;;;;;;;9.45;2.00;;;;;;;;;;4950263;28;20141;-77
2022/07/28 07:46:19;;;;;;;3.28;0.98;;;;;;;;;;4950658;28;20471;-78
2022/07/28 07:48:45;;;;;;;4.80;1.35;;;;;;;;;;4955141;28;20035;-78
2022/07/28 07:51:10;;;;;;;4.20;1.23;;;;;;;;;;4951930;28;20031;-77
2022/07/28 07:53:35;;;;;;;4.28;0.80;;;;;;;;;;4951141;28;20027;-76
2022/07/28 07:56:01;;;;;;;1.35;0.82;;;;;;;;;;4950111;28;20046;-77
2022/07/28 07:58:26;;;;;;;3.10;1.27;;;;;;;;;;4953918;28;20035;-78
2022/07/28 08:00:52;;;;;;;5.55;1.38;;;;;;;;;;4952028;28;20027;-76
2022/07/28 08:03:18;;;;;;;5.82;1.00;;;;;;;;;;4953416;28;20182;-75
2022/07/28 08:05:44;;;;;;;3.92;1.13;;;;;;;;;;4952054;28;20155;-78
2022/07/28 08:08:09;;;;;;;4.85;1.00;;;;;;;;;;4952384;28;20527;-78
2022/07/28 08:10:36;;;;;;;4.40;1.73;;;;;;;;;;4950834;28;20685;-78
2022/07/28 08:13:03;;;;;;;3.70;1.17;;;;;;;;;;4951386;28;20503;-78
2022/07/28 08:15:29;;;;;;;3.13;1.00;;;;;;;;;;4949759;28;20122;-78
2022/07/28 08:17:54;;;;;;;5.30;1.00;;;;;;;;;;4951322;28;20269;-77
2022/07/28 08:20:20;;;;;;;3.45;0.93;;;;;;;;;;4951130;28;20502;-77
2022/07/28 08:22:53;;;;;;;2.22;0.77;;;;;;;;;;4951253;28;20184;-77
2022/07/28 08:25:18;;;;;;;;;;;;;;;;;;4951629;28;20094;-75
2022/07/28 08:27:44;;;;;;;4.25;1.23;;;;;;;;;;4952491;28;20334;-78
2022/07/28 08:30:10;;;;;;;5.57;1.25;;;;;;;;;;4949589;28;20035;-77
2022/07/28 08:32:36;;;;;;;4.10;0.95;;;;;;;;;;4950593;28;20073;-77
2022/07/28 08:35:02;;;;;;;2.75;1.10;;;;;;;;;;4934851;28;20035;-78
2022/07/28 08:37:27;;;;;;;5.70;1.27;;;;;;;;;;4947135;28;20035;-78
2022/07/28 08:39:52;;;;;;;3.85;1.38;;;;;;;;;;4952863;28;20039;-78
2022/07/28 08:42:27;;;;;;;4.55;1.50;;;;;;;;;;4953217;28;20415;-75
2022/07/28 08:45:04;;;;;;;4.40;1.10;;;;;;;;;;4952159;28;20085;-78
2022/07/28 08:47:31;;;;;;;5.72;1.10;;;;;;;;;;4948201;28;20035;-78
2022/07/28 08:49:59;;;;;;;5.75;1.20;;;;;;;;;;4932560;28;20052;-77
2022/07/28 08:52:30;;;;;;;3.63;1.20;;;;;;;;;;4932913;28;20117;-79
2022/07/28 08:54:56;;;;;;;5.28;1.20;;;;;;;;;;4932870;28;20047;-77
2022/07/28 08:57:33;;;;;;;5.75;1.42;;;;;;;;;;4938850;28;20039;-77
2022/07/28 08:59:58;;;;;;;5.22;1.48;;;;;;;;;;4951136;28;20048;-76
2022/07/28 09:02:25;;;;;;;4.55;2.03;;;;;;;;;;4933914;29;20468;-77
2022/07/28 09:04:52;;;;;;;4.90;1.23;;;;;;;;;;4948248;28;20503;-76
2022/07/28 09:07:18;;;;;;;5.57;1.33;;;;;;;;;;4950750;28;20471;-76
2022/07/28 09:09:46;;;;;;;5.60;1.30;;;;;;;;;;4942317;28;20103;-77
2022/07/28 09:12:11;;;;;;;6.25;1.27;;;;;;;;;;4931835;28;20104;-76
2022/07/28 09:14:37;;;;;;;4.97;1.08;;;;;;;;;;4932050;29;20039;-77
2022/07/28 09:17:02;;;;;;;5.60;1.25;;;;;;;;;;4952152;28;20451;-75
2022/07/28 09:19:28;;;;;;;5.38;1.02;;;;;;;;;;4936423;28;20031;-75
2022/07/28 09:21:58;;;;;;;7.53;1.15;;;;;;;;;;4941411;28;20031;-77
2022/07/28 09:24:38;;;;;;;6.60;1.33;;;;;;;;;;4945351;28;20044;-77
2022/07/28 09:27:14;;;;;;;7.40;1.70;;;;;;;;;;4935073;28;20051;-76
2022/07/28 09:29:43;;;;;;;6.95;1.33;;;;;;;;;;4954481;28;20040;-77
2022/07/28 09:32:08;;;;;;;4.93;1.20;;;;;;;;;;4950762;28;20051;-76
2022/07/28 09:34:47;;;;;;;5.00;1.20;;;;;;;;;;4937679;28;20032;-76
2022/07/28 09:37:19;;;;;;;11.10;1.35;;;;;;;;;;4933922;28;20039;-76
2022/07/28 09:39:45;;;;;;;;;;;;;;;;;;4941448;28;20038;-74
2022/07/28 09:42:10;;;;;;;7.10;1.88;;;;;;;;;;4945599;28;19926;-76
2022/07/28 09:44:36;;;;;;;6.07;1.52;;;;;;;;;;4946596;28;20035;-77
2022/07/28 09:47:24;;;;;;;8.57;1.50;;;;;;;;;;4950922;28;20043;-78
2022/07/28 09:49:50;;;;;;;3.38;1.00;;;;;;;;;;4951667;28;20046;-77
2022/07/28 09:52:35;;;;;;;4.05;1.60;;;;;;;;;;4952482;28;20032;-78
2022/07/28 09:55:05;;;;;;;3.78;1.48;;;;;;;;;;4946771;28;20035;-76
2022/07/28 09:57:31;;;;;;;7.10;1.50;;;;;;;;;;4948264;28;20039;-77
2022/07/28 09:59:57;;;;;;;4.38;1.33;;;;;;;;;;4952683;28;20035;-76
2022/07/28 10:02:30;;;;;;;7.82;1.13;;;;;;;;;;4957952;28;20050;-76
2022/07/28 10:04:59;;;;;;;8.75;1.42;;;;;;;;;;4953589;28;20039;-78
2022/07/28 10:07:27;;;;;;;4.03;1.20;;;;;;;;;;4954131;28;20047;-76
2022/07/28 10:10:13;;;;;;;8.65;1.40;;;;;;;;;;4955050;28;20579;-76
2022/07/28 10:12:38;;;;;;;6.85;1.45;;;;;;;;;;4955775;28;20707;-77
2022/07/28 10:18:03;;;;;;;5.95;1.25;;;;;;;;;;4952666;28;20041;-74
2022/07/28 10:20:31;;;;;;;4.72;1.40;;;;;;;;;;4954733;28;20027;-76
2022/07/28 10:23:05;;;;;;;5.93;1.50;;;;;;;;;;4952694;28;20074;-75
2022/07/28 10:25:32;;;;;;;6.15;1.30;;;;;;;;;;4954851;28;20039;-76
2022/07/28 10:28:00;;;;;;;5.20;1.17;;;;;;;;;;4954624;28;20606;-76
2022/07/28 10:30:33;;;;;;;7.50;1.00;;;;;;;;;;4953436;28;20151;-73
2022/07/28 10:33:03;;;;;;;5.90;1.55;;;;;;;;;;4954921;28;20438;-77
2022/07/28 10:35:30;;;;;;;2.95;1.10;;;;;;;;;;4956228;28;20066;-78
2022/07/28 10:38:10;;;;;;;4.10;1.35;;;;;;;;;;4955084;28;20037;-76
2022/07/28 10:40:41;;;;;;;2.50;0.85;;;;;;;;;;4953969;28;20499;-77
2022/07/28 10:43:07;;;;;;;6.97;1.30;;;;;;;;;;4955914;28;20167;-77
2022/07/28 10:45:34;;;;;;;5.13;1.35;;;;;;;;;;4953629;28;20430;-78
2022/07/28 10:47:59;;;;;;;5.15;1.50;;;;;;;;;;4956494;28;20395;-78
2022/07/28 10:50:25;;;;;;;3.38;1.23;;;;;;;;;;4953569;28;20066;-78
2022/07/28 10:52:52;;;;;;;2.58;1.30;;;;;;;;;;4955363;28;20035;-80
2022/07/28 10:55:45;;;;;;;4.72;1.13;;;;;;;;;;4953738;28;20090;-76
2022/07/28 10:58:56;;;;;;;6.03;1.38;;;;;;;;;;4953719;28;20031;-78
2022/07/28 11:01:34;;;;;;;2.92;1.13;;;;;;;;;;4926752;28;20102;-76
2022/07/28 11:03:59;;;;;;;2.42;1.13;;;;;;;;;;4955723;28;20517;-75
2022/07/28 11:06:44;;;;;;;8.30;1.45;;;;;;;;;;4951873;28;20146;-75
2022/07/28 11:09:16;;;;;;;4.07;1.23;;;;;;;;;;4936157;28;20040;-77
2022/07/28 11:11:50;;;;;;;3.55;1.13;;;;;;;;;;4931863;28;20042;-75
2022/07/28 11:14:28;;;;;;;6.32;1.17;;;;;;;;;;4937276;29;20361;-76
2022/07/28 11:16:59;;;;;;;4.15;1.17;;;;;;;;;;4949448;28;20241;-75
2022/07/28 11:19:29;;;;;;;5.68;1.30;;;;;;;;;;4969827;28;20414;-75
2022/07/28 11:22:27;;;;;;;4.20;1.08;;;;;;;;;;4974199;28;20047;-75
2022/07/28 11:24:56;;;;;;;4.40;1.40;;;;;;;;;;4934400;28;20035;-75
2022/07/28 11:27:40;;;;;;;5.05;1.55;;;;;;;;;;4946785;28;20039;-75
2022/07/28 11:30:31;;;;;;;2.45;1.20;;;;;;;;;;4934474;28;20044;-73
2022/07/28 11:32:56;;;;;;;6.65;1.52;;;;;;;;;;4950039;28;20399;-75
2022/07/28 11:35:26;;;;;;;5.53;1.30;;;;;;;;;;4953746;28;20031;-74
2022/07/28 11:38:01;;;;;;;3.25;1.10;;;;;;;;;;4952692;28;20031;-75
2022/07/28 11:40:40;;;;;;;8.02;1.90;;;;;;;;;;4939075;28;20074;-73
2022/07/28 11:43:38;;;;;;;8.57;1.55;;;;;;;;;;4944571;28;20035;-75
2022/07/28 11:46:04;;;;;;;5.90;1.58;;;;;;;;;;4906141;29;20103;-73
2022/07/28 11:48:29;;;;;;;11.43;1.50;;;;;;;;;;4939860;28;20051;-74
2022/07/28 11:51:01;;;;;;;2.47;1.17;;;;;;;;;;4950400;28;20766;-76
2022/07/28 11:53:44;;;;;;;4.43;1.45;;;;;;;;;;4933994;29;20043;-75
2022/07/28 11:56:14;;;;;;;4.85;1.23;;;;;;;;;;4933133;29;20043;-74
2022/07/28 11:58:41;;;;;;;8.88;1.42;;;;;;;;;;4932555;28;20035;-73
2022/07/28 12:01:17;;;;;;;3.13;1.02;;;;;;;;;;4934716;28;20444;-75
2022/07/28 12:03:45;;;;;;;3.17;1.08;;;;;;;;;;4942986;28;20578;-75
2022/07/28 12:06:11;;;;;;;2.75;1.00;;;;;;;;;;4949118;28;20059;-74
2022/07/28 12:08:57;;;;;;;4.70;1.27;;;;;;;;;;4931549;29;20118;-75
2022/07/28 12:11:23;;;;;;;3.60;1.20;;;;;;;;;;4933363;29;20056;-75
2022/07/28 12:14:12;;;;;;;4.25;1.33;;;;;;;;;;4932776;28;20657;-76
2022/07/28 12:16:41;;;;;;;2.35;1.10;;;;;;;;;;4937866;28;20126;-77
2022/07/28 12:19:07;;;;;;;4.10;1.35;;;;;;;;;;4931216;28;20036;-76
2022/07/28 12:21:50;;;;;;;4.40;1.35;;;;;;;;;;4936417;28;20046;-74
2022/07/28 12:24:31;;;;;;;2.30;1.02;;;;;;;;;;4945743;28;20040;-74
2022/07/28 12:26:59;;;;;;;5.93;1.50;;;;;;;;;;4931273;28;20624;-74
2022/07/28 12:29:30;;;;;;;4.90;1.15;;;;;;;;;;4945058;28;20064;-73
2022/07/28 12:32:04;;;;;;;4.43;1.55;;;;;;;;;;4949682;28;20039;-75
2022/07/28 12:34:32;;;;;;;2.80;1.20;;;;;;;;;;4949058;28;20032;-74
2022/07/28 12:37:00;;;;;;;3.22;1.10;;;;;;;;;;4953357;28;20106;-74
2022/07/28 12:39:28;;;;;;;4.55;1.40;;;;;;;;;;4949294;28;20167;-76
2022/07/28 12:42:05;;;;;;;4.28;1.30;;;;;;;;;;4949171;28;20046;-74
2022/07/28 12:44:37;;;;;;;3.85;1.35;;;;;;;;;;4951866;28;20113;-73
2022/07/28 12:47:05;;;;;;;4.60;1.20;;;;;;;;;;4952619;28;20039;-76
2022/07/28 12:49:30;;;;;;;2.63;1.13;;;;;;;;;;4950676;28;20039;-76
2022/07/28 12:51:57;;;;;;;2.75;1.30;;;;;;;;;;4949197;28;20506;-75
2022/07/28 12:54:34;;;;;;;2.83;1.20;;;;;;;;;;4951868;28;20043;-73
2022/07/28 12:57:00;;;;;;;4.65;1.33;;;;;;;;;;4951825;28;20109;-75
2022/07/28 12:59:35;;;;;;;6.45;1.70;;;;;;;;;;4966753;28;20024;-74
2022/07/28 13:02:01;;;;;;;4.57;1.45;;;;;;;;;;4952721;28;20047;-76
2022/07/28 13:04:46;;;;;;;6.22;2.15;;;;;;;;;;4941394;28;20063;-78
2022/07/28 13:07:31;;;;;;;3.58;1.10;;;;;;;;;;4945920;28;20043;-76
2022/07/28 13:10:08;;;;;;;5.40;1.60;;;;;;;;;;4942061;28;20051;-75
2022/07/28 13:12:34;;;;;;;5.30;1.60;;;;;;;;;;4930179;29;20106;-75
2022/07/28 13:15:01;;;;;;;10.40;1.92;;;;;;;;;;4935970;28;20027;-75
2022/07/28 13:17:30;;;;;;;7.80;2.13;;;;;;;;;;4951399;28;20483;-75
2022/07/28 13:20:09;;;;;;;3.85;1.35;;;;;;;;;;4930767;28;20119;-77
2022/07/28 13:22:35;;;;;;;5.55;1.52;;;;;;;;;;4932353;28;20111;-77
2022/07/28 13:25:00;;;;;;;3.90;1.52;;;;;;;;;;4940573;28;20055;-74
2022/07/28 13:27:27;;;;;;;6.70;1.90;;;;;;;;;;4943541;28;20067;-74
2022/07/28 13:29:53;;;;;;;3.63;1.30;;;;;;;;;;4931969;28;20547;-75
2022/07/28 13:32:19;;;;;;;4.32;1.35;;;;;;;;;;4950453;28;20106;-71
2022/07/28 13:34:44;;;;;;;3.72;1.50;;;;;;;;;;4954348;28;20115;-76
2022/07/28 13:37:11;;;;;;;4.68;1.70;;;;;;;;;;4957432;28;20046;-76
2022/07/28 13:39:37;;;;;;;3.63;1.25;;;;;;;;;;4957024;28;20046;-77
2022/07/28 13:42:03;;;;;;;4.75;1.40;;;;;;;;;;4952573;28;20488;-73
2022/07/28 13:44:30;;;;;;;3.00;1.48;;;;;;;;;;4936793;29;20103;-73
2022/07/28 13:46:56;;;;;;;2.75;1.20;;;;;;;;;;4952689;28;20043;-73
2022/07/28 13:49:23;;;;;;;6.40;1.58;;;;;;;;;;4955847;28;20698;-76
2022/07/28 13:51:49;;;;;;;3.78;1.38;;;;;;;;;;4949943;28;20131;-76
2022/07/28 13:54:14;;;;;;;2.85;1.63;;;;;;;;;;4943504;28;20043;-75
2022/07/28 13:56:40;;;;;;;4.72;1.58;;;;;;;;;;4955430;28;20031;-74
2022/07/28 13:59:06;;;;;;;2.75;1.20;;;;;;;;;;4952528;28;20399;-74
2022/07/28 14:01:32;;;;;;;3.25;1.20;;;;;;;;;;4956304;28;20042;-74
2022/07/28 14:03:57;;;;;;;3.53;1.20;;;;;;;;;;4954978;28;20055;-76
2022/07/28 14:06:22;;;;;;;3.63;1.30;;;;;;;;;;4954137;28;20043;-74
2022/07/28 14:08:48;;;;;;;5.60;1.50;;;;;;;;;;4954140;28;20030;-75
2022/07/28 14:11:14;;;;;;;6.68;1.50;;;;;;;;;;4954515;28;20412;-77
2022/07/28 14:13:40;;;;;;;2.30;1.30;;;;;;;;;;4957991;28;20067;-75
2022/07/28 14:16:06;;;;;;;4.68;1.55;;;;;;;;;;4952877;28;20047;-74
2022/07/28 14:18:32;;;;;;;6.10;1.88;;;;;;;;;;4957799;28;20045;-75
2022/07/28 14:20:57;;;;;;;3.38;1.60;;;;;;;;;;4951645;28;20027;-74
2022/07/28 14:23:22;;;;;;;8.45;1.67;;;;;;;;;;4953411;28;20050;-74
2022/07/28 14:25:48;;;;;;;6.07;1.65;;;;;;;;;;4954890;28;20046;-73
2022/07/28 14:28:13;;;;;;;2.65;1.20;;;;;;;;;;4956927;28;20570;-74
2022/07/28 14:30:39;;;;;;;4.90;1.63;;;;;;;;;;4954261;28;20069;-74
2022/07/28 14:33:05;;;;;;;5.82;1.70;;;;;;;;;;4956305;28;20055;-74
2022/07/28 14:35:31;;;;;;;6.95;1.83;;;;;;;;;;4958523;28;20022;-75
2022/07/28 14:37:56;;;;;;;8.27;1.33;;;;;;;;;;4956298;28;20031;-75
2022/07/28 14:40:22;;;;;;;6.00;1.80;;;;;;;;;;4955261;28;20037;-76
2022/07/28 14:42:48;;;;;;;17.45;1.70;;;;;;;;;;4952437;28;20035;-75
2022/07/28 14:45:13;;;;;;;9.77;1.70;;;;;;;;;;4955679;28;20103;-75
2022/07/28 14:47:39;;;;;;;8.10;1.38;;;;;;;;;;4955647;28;20077;-73
2022/07/28 14:50:05;;;;;;;4.30;1.40;;;;;;;;;;4956815;28;20454;-74
2022/07/28 14:52:30;;;;;;;6.10;1.52;;;;;;;;;;4955364;28;20067;-75
2022/07/28 14:54:56;;;;;;;3.53;1.40;;;;;;;;;;4956077;28;20376;-73
2022/07/28 14:57:22;;;;;;;4.28;1.20;;;;;;;;;;4955879;28;20042;-73